sensor_id;sensor_type;location;lat;lon;timestamp;temperature;humidity
52036;DHT22;38046;49.448;32.074;2022-12-07T00:01:31;0.90;58.50
52036;DHT22;38046;49.448;32.074;2022-12-07T00:03:59;1.00;58.60
52036;DHT22;38046;49.448;32.074;2022-12-07T00:06:34;1.00;58.60
52036;DHT22;38046;49.448;32.074;2022-12-07T00:09:00;1.00;58.40
52036;DHT22;38046;49.448;32.074;2022-12-07T00:11:26;1.00;58.60
52036;DHT22;38046;49.448;32.074;2022-12-07T00:14:00;1.10;58.50
52036;DHT22;38046;49.448;32.074;2022-12-07T00:16:30;1.20;58.40
52036;DHT22;38046;49.448;32.074;2022-12-07T00:18:56;1.20;58.30
52036;DHT22;38046;49.448;32.074;2022-12-07T00:21:47;1.20;58.30
52036;DHT22;38046;49.448;32.074;2022-12-07T00:24:12;1.30;58.00
52036;DHT22;38046;49.448;32.074;2022-12-07T00:26:40;1.30;58.10
52036;DHT22;38046;49.448;32.074;2022-12-07T00:29:18;1.40;58.00
52036;DHT22;38046;49.448;32.074;2022-12-07T00:31:45;1.40;57.90
52036;DHT22;38046;49.448;32.074;2022-12-07T00:34:19;1.40;57.80
52036;DHT22;38046;49.448;32.074;2022-12-07T00:36:45;1.40;57.80
52036;DHT22;38046;49.448;32.074;2022-12-07T00:39:11;1.40;57.80
52036;DHT22;38046;49.448;32.074;2022-12-07T00:41:43;1.40;57.90
52036;DHT22;38046;49.448;32.074;2022-12-07T00:44:09;1.40;57.90
52036;DHT22;38046;49.448;32.074;2022-12-07T00:50:08;1.40;57.90
52036;DHT22;38046;49.448;32.074;2022-12-07T00:52:34;1.40;57.90
52036;DHT22;38046;49.448;32.074;2022-12-07T00:58:23;1.30;57.90
52036;DHT22;38046;49.448;32.074;2022-12-07T01:00:49;1.30;58.00
52036;DHT22;38046;49.448;32.074;2022-12-07T01:03:18;1.30;58.10
52036;DHT22;38046;49.448;32.074;2022-12-07T01:05:52;1.30;58.10
52036;DHT22;38046;49.448;32.074;2022-12-07T01:08:19;1.30;58.10
52036;DHT22;38046;49.448;32.074;2022-12-07T01:10:45;1.20;58.20
52036;DHT22;38046;49.448;32.074;2022-12-07T01:13:11;1.20;58.40
52036;DHT22;38046;49.448;32.074;2022-12-07T01:15:41;1.10;58.40
52036;DHT22;38046;49.448;32.074;2022-12-07T01:18:07;1.10;58.60
52036;DHT22;38046;49.448;32.074;2022-12-07T01:20:32;1.10;58.70
52036;DHT22;38046;49.448;32.074;2022-12-07T01:22:58;1.00;58.70
52036;DHT22;38046;49.448;32.074;2022-12-07T01:25:23;1.00;58.90
52036;DHT22;38046;49.448;32.074;2022-12-07T01:27:49;1.00;58.90
52036;DHT22;38046;49.448;32.074;2022-12-07T01:30:15;1.00;59.10
52036;DHT22;38046;49.448;32.074;2022-12-07T01:32:40;1.00;59.10
52036;DHT22;38046;49.448;32.074;2022-12-07T01:35:06;0.90;59.30
52036;DHT22;38046;49.448;32.074;2022-12-07T01:37:36;0.90;59.40
52036;DHT22;38046;49.448;32.074;2022-12-07T01:40:03;0.90;59.60
52036;DHT22;38046;49.448;32.074;2022-12-07T01:42:29;0.80;59.70
52036;DHT22;38046;49.448;32.074;2022-12-07T01:47:46;0.80;60.00
52036;DHT22;38046;49.448;32.074;2022-12-07T01:50:12;0.70;60.10
52036;DHT22;38046;49.448;32.074;2022-12-07T01:52:40;0.70;60.20
52036;DHT22;38046;49.448;32.074;2022-12-07T01:55:09;0.70;60.20
52036;DHT22;38046;49.448;32.074;2022-12-07T01:57:38;0.70;60.20
52036;DHT22;38046;49.448;32.074;2022-12-07T02:00:06;0.80;60.20
52036;DHT22;38046;49.448;32.074;2022-12-07T02:02:34;0.80;60.20
52036;DHT22;38046;49.448;32.074;2022-12-07T02:05:04;0.80;60.60
52036;DHT22;38046;49.448;32.074;2022-12-07T02:07:31;0.80;60.20
52036;DHT22;38046;49.448;32.074;2022-12-07T02:10:11;0.90;60.20
52036;DHT22;38046;49.448;32.074;2022-12-07T02:12:36;1.00;60.10
52036;DHT22;38046;49.448;32.074;2022-12-07T02:15:02;1.00;59.90
52036;DHT22;38046;49.448;32.074;2022-12-07T02:17:34;1.10;59.80
52036;DHT22;38046;49.448;32.074;2022-12-07T02:20:20;1.20;59.80
52036;DHT22;38046;49.448;32.074;2022-12-07T02:31:23;1.30;59.40
52036;DHT22;38046;49.448;32.074;2022-12-07T02:33:58;1.30;59.40
52036;DHT22;38046;49.448;32.074;2022-12-07T02:36:32;1.30;59.10
52036;DHT22;38046;49.448;32.074;2022-12-07T02:39:46;1.30;59.00
52036;DHT22;38046;49.448;32.074;2022-12-07T02:41:56;1.20;58.90
52036;DHT22;38046;49.448;32.074;2022-12-07T02:44:26;1.20;58.90
52036;DHT22;38046;49.448;32.074;2022-12-07T02:47:05;1.20;58.70
52036;DHT22;38046;49.448;32.074;2022-12-07T02:49:31;1.20;58.70
52036;DHT22;38046;49.448;32.074;2022-12-07T02:51:57;1.20;58.80
52036;DHT22;38046;49.448;32.074;2022-12-07T02:54:22;1.20;58.70
52036;DHT22;38046;49.448;32.074;2022-12-07T02:57:21;1.20;58.70
52036;DHT22;38046;49.448;32.074;2022-12-07T03:00:09;1.20;58.60
52036;DHT22;38046;49.448;32.074;2022-12-07T03:08:02;1.20;58.40
52036;DHT22;38046;49.448;32.074;2022-12-07T03:13:25;1.20;58.50
52036;DHT22;38046;49.448;32.074;2022-12-07T03:18:40;1.20;58.20
52036;DHT22;38046;49.448;32.074;2022-12-07T03:21:17;1.20;58.30
52036;DHT22;38046;49.448;32.074;2022-12-07T03:23:48;1.20;58.30
52036;DHT22;38046;49.448;32.074;2022-12-07T03:26:15;1.20;58.20
52036;DHT22;38046;49.448;32.074;2022-12-07T03:28:44;1.20;58.10
52036;DHT22;38046;49.448;32.074;2022-12-07T03:34:14;1.20;58.20
52036;DHT22;38046;49.448;32.074;2022-12-07T03:36:53;1.20;58.20
52036;DHT22;38046;49.448;32.074;2022-12-07T03:42:06;1.20;58.00
52036;DHT22;38046;49.448;32.074;2022-12-07T03:44:33;1.20;58.00
52036;DHT22;38046;49.448;32.074;2022-12-07T03:47:01;1.20;58.00
52036;DHT22;38046;49.448;32.074;2022-12-07T03:52:23;1.20;58.10
52036;DHT22;38046;49.448;32.074;2022-12-07T03:57:30;1.20;58.00
52036;DHT22;38046;49.448;32.074;2022-12-07T03:59:57;1.20;58.00
52036;DHT22;38046;49.448;32.074;2022-12-07T04:02:25;1.20;58.00
52036;DHT22;38046;49.448;32.074;2022-12-07T04:04:55;1.20;58.00
52036;DHT22;38046;49.448;32.074;2022-12-07T04:07:24;1.20;58.00
52036;DHT22;38046;49.448;32.074;2022-12-07T04:09:50;1.10;58.00
52036;DHT22;38046;49.448;32.074;2022-12-07T04:12:15;1.10;58.00
52036;DHT22;38046;49.448;32.074;2022-12-07T04:14:41;1.10;58.00
52036;DHT22;38046;49.448;32.074;2022-12-07T04:17:08;1.10;57.90
52036;DHT22;38046;49.448;32.074;2022-12-07T04:19:35;1.00;58.10
52036;DHT22;38046;49.448;32.074;2022-12-07T04:22:04;1.00;58.20
52036;DHT22;38046;49.448;32.074;2022-12-07T04:24:30;1.00;58.20
52036;DHT22;38046;49.448;32.074;2022-12-07T04:26:56;1.10;58.40
52036;DHT22;38046;49.448;32.074;2022-12-07T04:29:22;1.10;58.40
52036;DHT22;38046;49.448;32.074;2022-12-07T04:31:48;1.10;58.20
52036;DHT22;38046;49.448;32.074;2022-12-07T04:34:15;1.10;58.10
52036;DHT22;38046;49.448;32.074;2022-12-07T04:36:42;1.10;58.30
52036;DHT22;38046;49.448;32.074;2022-12-07T04:39:24;1.10;58.30
52036;DHT22;38046;49.448;32.074;2022-12-07T04:41:50;1.10;58.30
52036;DHT22;38046;49.448;32.074;2022-12-07T04:46:45;1.10;58.50
52036;DHT22;38046;49.448;32.074;2022-12-07T04:49:12;1.10;58.60
52036;DHT22;38046;49.448;32.074;2022-12-07T04:51:39;1.10;58.80
52036;DHT22;38046;49.448;32.074;2022-12-07T04:54:05;1.10;58.90
52036;DHT22;38046;49.448;32.074;2022-12-07T04:56:31;1.10;58.90
52036;DHT22;38046;49.448;32.074;2022-12-07T04:58:57;1.10;59.00
52036;DHT22;38046;49.448;32.074;2022-12-07T05:01:24;1.10;59.20
52036;DHT22;38046;49.448;32.074;2022-12-07T05:03:50;1.10;59.30
52036;DHT22;38046;49.448;32.074;2022-12-07T05:06:16;1.10;59.40
52036;DHT22;38046;49.448;32.074;2022-12-07T05:08:42;1.10;59.70
52036;DHT22;38046;49.448;32.074;2022-12-07T05:11:12;1.10;60.00
52036;DHT22;38046;49.448;32.074;2022-12-07T05:13:56;1.00;60.20
52036;DHT22;38046;49.448;32.074;2022-12-07T05:16:23;1.00;60.60
52036;DHT22;38046;49.448;32.074;2022-12-07T05:18:49;1.00;60.90
52036;DHT22;38046;49.448;32.074;2022-12-07T05:21:14;1.00;61.20
52036;DHT22;38046;49.448;32.074;2022-12-07T05:23:40;1.00;61.40
52036;DHT22;38046;49.448;32.074;2022-12-07T05:26:06;1.00;61.80
52036;DHT22;38046;49.448;32.074;2022-12-07T05:28:32;1.00;62.20
52036;DHT22;38046;49.448;32.074;2022-12-07T05:31:06;1.00;62.60
52036;DHT22;38046;49.448;32.074;2022-12-07T05:33:32;0.90;63.40
52036;DHT22;38046;49.448;32.074;2022-12-07T05:35:58;0.80;63.50
52036;DHT22;38046;49.448;32.074;2022-12-07T05:38:24;0.80;63.80
52036;DHT22;38046;49.448;32.074;2022-12-07T05:40:55;0.70;64.10
52036;DHT22;38046;49.448;32.074;2022-12-07T05:43:26;0.70;64.60
52036;DHT22;38046;49.448;32.074;2022-12-07T05:45:52;0.60;64.60
52036;DHT22;38046;49.448;32.074;2022-12-07T05:48:18;0.60;64.70
52036;DHT22;38046;49.448;32.074;2022-12-07T05:50:44;0.60;65.00
52036;DHT22;38046;49.448;32.074;2022-12-07T05:53:12;0.60;65.20
52036;DHT22;38046;49.448;32.074;2022-12-07T05:55:38;0.60;65.30
52036;DHT22;38046;49.448;32.074;2022-12-07T05:58:06;0.60;65.50
52036;DHT22;38046;49.448;32.074;2022-12-07T06:00:50;0.60;65.70
52036;DHT22;38046;49.448;32.074;2022-12-07T06:03:16;0.60;66.00
52036;DHT22;38046;49.448;32.074;2022-12-07T06:05:42;0.60;66.20
52036;DHT22;38046;49.448;32.074;2022-12-07T06:08:08;0.50;66.40
52036;DHT22;38046;49.448;32.074;2022-12-07T06:10:34;0.50;66.60
52036;DHT22;38046;49.448;32.074;2022-12-07T06:13:02;0.50;66.80
52036;DHT22;38046;49.448;32.074;2022-12-07T06:15:28;0.50;67.10
52036;DHT22;38046;49.448;32.074;2022-12-07T06:17:53;0.50;67.50
52036;DHT22;38046;49.448;32.074;2022-12-07T06:20:19;0.50;67.60
52036;DHT22;38046;49.448;32.074;2022-12-07T06:22:48;0.40;67.70
52036;DHT22;38046;49.448;32.074;2022-12-07T06:25:14;0.50;68.10
52036;DHT22;38046;49.448;32.074;2022-12-07T06:27:40;0.50;68.40
52036;DHT22;38046;49.448;32.074;2022-12-07T06:30:06;0.40;68.40
52036;DHT22;38046;49.448;32.074;2022-12-07T06:32:35;0.40;68.70
52036;DHT22;38046;49.448;32.074;2022-12-07T06:35:01;0.40;68.90
52036;DHT22;38046;49.448;32.074;2022-12-07T06:37:30;0.40;69.10
52036;DHT22;38046;49.448;32.074;2022-12-07T06:39:56;0.30;69.40
52036;DHT22;38046;49.448;32.074;2022-12-07T06:42:22;0.40;69.60
52036;DHT22;38046;49.448;32.074;2022-12-07T06:44:50;0.30;69.70
52036;DHT22;38046;49.448;32.074;2022-12-07T06:47:16;0.40;70.00
52036;DHT22;38046;49.448;32.074;2022-12-07T06:49:42;0.40;70.10
52036;DHT22;38046;49.448;32.074;2022-12-07T06:52:08;0.40;70.30
52036;DHT22;38046;49.448;32.074;2022-12-07T06:54:43;0.40;70.30
52036;DHT22;38046;49.448;32.074;2022-12-07T06:57:11;0.40;70.70
52036;DHT22;38046;49.448;32.074;2022-12-07T06:59:37;0.40;71.00
52036;DHT22;38046;49.448;32.074;2022-12-07T07:02:05;0.30;70.90
52036;DHT22;38046;49.448;32.074;2022-12-07T07:04:31;0.30;71.20
52036;DHT22;38046;49.448;32.074;2022-12-07T07:06:57;0.30;71.40
52036;DHT22;38046;49.448;32.074;2022-12-07T07:09:22;0.30;71.70
52036;DHT22;38046;49.448;32.074;2022-12-07T07:11:48;0.30;71.80
52036;DHT22;38046;49.448;32.074;2022-12-07T07:14:14;0.30;71.90
52036;DHT22;38046;49.448;32.074;2022-12-07T07:16:44;0.30;72.00
52036;DHT22;38046;49.448;32.074;2022-12-07T07:19:10;0.40;72.10
52036;DHT22;38046;49.448;32.074;2022-12-07T07:21:36;0.40;72.20
52036;DHT22;38046;49.448;32.074;2022-12-07T07:24:02;0.40;72.30
52036;DHT22;38046;49.448;32.074;2022-12-07T07:26:29;0.40;72.50
52036;DHT22;38046;49.448;32.074;2022-12-07T07:28:55;0.40;73.30
52036;DHT22;38046;49.448;32.074;2022-12-07T07:31:21;0.50;72.80
52036;DHT22;38046;49.448;32.074;2022-12-07T07:33:47;0.50;72.70
52036;DHT22;38046;49.448;32.074;2022-12-07T07:36:13;0.50;72.80
52036;DHT22;38046;49.448;32.074;2022-12-07T07:38:38;0.40;72.90
52036;DHT22;38046;49.448;32.074;2022-12-07T07:41:04;0.50;73.00
52036;DHT22;38046;49.448;32.074;2022-12-07T07:43:30;0.40;73.10
52036;DHT22;38046;49.448;32.074;2022-12-07T07:45:56;0.40;73.10
52036;DHT22;38046;49.448;32.074;2022-12-07T07:48:21;0.50;73.40
52036;DHT22;38046;49.448;32.074;2022-12-07T07:50:48;0.50;73.30
52036;DHT22;38046;49.448;32.074;2022-12-07T07:53:13;0.50;73.30
52036;DHT22;38046;49.448;32.074;2022-12-07T07:55:39;0.60;73.40
52036;DHT22;38046;49.448;32.074;2022-12-07T07:58:05;0.60;73.30
52036;DHT22;38046;49.448;32.074;2022-12-07T08:00:30;0.60;73.30
52036;DHT22;38046;49.448;32.074;2022-12-07T08:02:56;0.70;73.30
52036;DHT22;38046;49.448;32.074;2022-12-07T08:05:22;0.70;73.30
52036;DHT22;38046;49.448;32.074;2022-12-07T08:07:47;0.70;73.40
52036;DHT22;38046;49.448;32.074;2022-12-07T08:10:13;0.70;73.40
52036;DHT22;38046;49.448;32.074;2022-12-07T08:12:41;0.80;73.50
52036;DHT22;38046;49.448;32.074;2022-12-07T08:15:30;0.80;73.50
52036;DHT22;38046;49.448;32.074;2022-12-07T08:17:56;0.90;73.70
52036;DHT22;38046;49.448;32.074;2022-12-07T08:20:22;0.90;73.50
52036;DHT22;38046;49.448;32.074;2022-12-07T08:22:48;0.90;73.60
52036;DHT22;38046;49.448;32.074;2022-12-07T08:25:13;1.00;73.70
52036;DHT22;38046;49.448;32.074;2022-12-07T08:27:39;1.00;73.80
52036;DHT22;38046;49.448;32.074;2022-12-07T08:30:05;1.00;73.80
52036;DHT22;38046;49.448;32.074;2022-12-07T08:32:31;1.10;73.90
52036;DHT22;38046;49.448;32.074;2022-12-07T08:34:57;1.10;73.90
52036;DHT22;38046;49.448;32.074;2022-12-07T08:37:23;1.10;73.80
52036;DHT22;38046;49.448;32.074;2022-12-07T08:39:48;1.10;73.90
52036;DHT22;38046;49.448;32.074;2022-12-07T08:42:14;1.10;74.00
52036;DHT22;38046;49.448;32.074;2022-12-07T08:44:40;1.10;74.00
52036;DHT22;38046;49.448;32.074;2022-12-07T08:47:06;1.10;74.20
52036;DHT22;38046;49.448;32.074;2022-12-07T08:49:37;1.10;74.30
52036;DHT22;38046;49.448;32.074;2022-12-07T08:52:04;1.10;74.50
52036;DHT22;38046;49.448;32.074;2022-12-07T08:54:31;1.10;74.70
52036;DHT22;38046;49.448;32.074;2022-12-07T08:56:57;1.10;74.80
52036;DHT22;38046;49.448;32.074;2022-12-07T08:59:23;1.10;74.90
52036;DHT22;38046;49.448;32.074;2022-12-07T09:01:49;1.10;75.00
52036;DHT22;38046;49.448;32.074;2022-12-07T09:04:14;1.10;75.10
52036;DHT22;38046;49.448;32.074;2022-12-07T09:09:17;1.10;75.40
52036;DHT22;38046;49.448;32.074;2022-12-07T09:11:43;1.10;75.70
52036;DHT22;38046;49.448;32.074;2022-12-07T09:14:10;1.10;75.60
52036;DHT22;38046;49.448;32.074;2022-12-07T09:16:37;1.10;75.70
52036;DHT22;38046;49.448;32.074;2022-12-07T09:19:03;1.10;75.80
52036;DHT22;38046;49.448;32.074;2022-12-07T09:21:29;1.10;75.90
52036;DHT22;38046;49.448;32.074;2022-12-07T09:23:55;1.20;75.80
52036;DHT22;38046;49.448;32.074;2022-12-07T09:26:21;1.20;75.70
52036;DHT22;38046;49.448;32.074;2022-12-07T09:28:47;1.20;75.80
52036;DHT22;38046;49.448;32.074;2022-12-07T09:31:12;1.20;75.80
52036;DHT22;38046;49.448;32.074;2022-12-07T09:33:38;1.30;75.70
52036;DHT22;38046;49.448;32.074;2022-12-07T09:36:04;1.30;75.70
52036;DHT22;38046;49.448;32.074;2022-12-07T09:38:31;1.30;75.60
52036;DHT22;38046;49.448;32.074;2022-12-07T09:41:04;1.30;75.40
52036;DHT22;38046;49.448;32.074;2022-12-07T09:43:30;1.40;75.30
52036;DHT22;38046;49.448;32.074;2022-12-07T09:45:56;1.40;75.30
52036;DHT22;38046;49.448;32.074;2022-12-07T09:48:37;1.40;75.40
52036;DHT22;38046;49.448;32.074;2022-12-07T09:51:37;1.40;75.40
52036;DHT22;38046;49.448;32.074;2022-12-07T09:53:57;1.40;75.70
52036;DHT22;38046;49.448;32.074;2022-12-07T09:56:23;1.40;75.40
52036;DHT22;38046;49.448;32.074;2022-12-07T09:58:58;1.40;75.50
52036;DHT22;38046;49.448;32.074;2022-12-07T10:01:29;1.40;75.70
52036;DHT22;38046;49.448;32.074;2022-12-07T10:04:09;1.50;75.90
52036;DHT22;38046;49.448;32.074;2022-12-07T10:06:36;1.50;75.90
52036;DHT22;38046;49.448;32.074;2022-12-07T10:09:02;1.50;75.80
52036;DHT22;38046;49.448;32.074;2022-12-07T10:11:28;1.60;75.70
52036;DHT22;38046;49.448;32.074;2022-12-07T10:13:54;1.60;75.60
52036;DHT22;38046;49.448;32.074;2022-12-07T10:16:38;1.60;75.90
52036;DHT22;38046;49.448;32.074;2022-12-07T10:22:16;1.60;75.60
52036;DHT22;38046;49.448;32.074;2022-12-07T10:24:44;1.60;75.60
52036;DHT22;38046;49.448;32.074;2022-12-07T10:27:26;1.70;75.70
52036;DHT22;38046;49.448;32.074;2022-12-07T10:29:53;1.70;75.50
52036;DHT22;38046;49.448;32.074;2022-12-07T10:34:45;1.80;75.40
52036;DHT22;38046;49.448;32.074;2022-12-07T10:37:17;1.80;75.20
52036;DHT22;38046;49.448;32.074;2022-12-07T10:39:52;1.80;75.20
52036;DHT22;38046;49.448;32.074;2022-12-07T10:42:22;1.80;75.30
52036;DHT22;38046;49.448;32.074;2022-12-07T10:44:50;1.80;75.40
52036;DHT22;38046;49.448;32.074;2022-12-07T10:47:48;1.70;75.30
52036;DHT22;38046;49.448;32.074;2022-12-07T10:50:34;1.70;75.40
52036;DHT22;38046;49.448;32.074;2022-12-07T10:53:28;1.60;75.70
52036;DHT22;38046;49.448;32.074;2022-12-07T11:01:42;1.50;76.20
52036;DHT22;38046;49.448;32.074;2022-12-07T11:09:47;1.40;77.10
52036;DHT22;38046;49.448;32.074;2022-12-07T11:12:36;1.30;77.20
52036;DHT22;38046;49.448;32.074;2022-12-07T11:17:53;1.40;77.40
52036;DHT22;38046;49.448;32.074;2022-12-07T11:25:53;1.40;77.50
52036;DHT22;38046;49.448;32.074;2022-12-07T11:36:49;1.40;77.60
52036;DHT22;38046;49.448;32.074;2022-12-07T11:39:36;1.30;77.90
52036;DHT22;38046;49.448;32.074;2022-12-07T11:42:24;1.40;77.80
52036;DHT22;38046;49.448;32.074;2022-12-07T11:44:56;1.40;77.80
52036;DHT22;38046;49.448;32.074;2022-12-07T11:47:28;1.40;78.00
52036;DHT22;38046;49.448;32.074;2022-12-07T11:58:53;1.40;78.20
52036;DHT22;38046;49.448;32.074;2022-12-07T12:04:19;1.20;78.40
52036;DHT22;38046;49.448;32.074;2022-12-07T12:06:47;1.20;78.70
52036;DHT22;38046;49.448;32.074;2022-12-07T12:09:19;1.20;79.00
52036;DHT22;38046;49.448;32.074;2022-12-07T12:20:49;1.10;79.00
52036;DHT22;38046;49.448;32.074;2022-12-07T12:23:20;1.10;79.10
52036;DHT22;38046;49.448;32.074;2022-12-07T12:25:58;1.10;79.20
52036;DHT22;38046;49.448;32.074;2022-12-07T12:28:35;1.10;79.00
52036;DHT22;38046;49.448;32.074;2022-12-07T12:33:48;1.10;79.30
52036;DHT22;38046;49.448;32.074;2022-12-07T12:47:03;1.00;79.60
52036;DHT22;38046;49.448;32.074;2022-12-07T12:49:40;1.10;79.60
52036;DHT22;38046;49.448;32.074;2022-12-07T12:55:11;1.10;79.70
52036;DHT22;38046;49.448;32.074;2022-12-07T12:57:37;1.10;79.50
52036;DHT22;38046;49.448;32.074;2022-12-07T13:02:53;1.10;79.40
52036;DHT22;38046;49.448;32.074;2022-12-07T13:05:20;1.20;79.60
52036;DHT22;38046;49.448;32.074;2022-12-07T13:23:25;1.30;79.10
52036;DHT22;38046;49.448;32.074;2022-12-07T13:25:55;1.30;79.10
52036;DHT22;38046;49.448;32.074;2022-12-07T13:28:31;1.30;79.10
52036;DHT22;38046;49.448;32.074;2022-12-07T13:31:30;1.30;79.80
52036;DHT22;38046;49.448;32.074;2022-12-07T13:33:57;1.30;79.20
52036;DHT22;38046;49.448;32.074;2022-12-07T13:36:38;1.20;79.20
52036;DHT22;38046;49.448;32.074;2022-12-07T13:41:44;1.20;79.40
52036;DHT22;38046;49.448;32.074;2022-12-07T13:44:12;1.10;79.50
52036;DHT22;38046;49.448;32.074;2022-12-07T13:49:28;1.10;79.90
52036;DHT22;38046;49.448;32.074;2022-12-07T13:57:12;1.00;80.50
52036;DHT22;38046;49.448;32.074;2022-12-07T13:59:37;1.00;80.00
52036;DHT22;38046;49.448;32.074;2022-12-07T14:02:53;1.00;80.20
52036;DHT22;38046;49.448;32.074;2022-12-07T14:05:22;0.90;80.20
52036;DHT22;38046;49.448;32.074;2022-12-07T14:10:42;0.90;80.40
52036;DHT22;38046;49.448;32.074;2022-12-07T14:15:54;0.90;80.50
52036;DHT22;38046;49.448;32.074;2022-12-07T14:18:38;0.90;80.60
52036;DHT22;38046;49.448;32.074;2022-12-07T14:23:30;0.90;80.80
52036;DHT22;38046;49.448;32.074;2022-12-07T14:26:12;0.90;80.80
52036;DHT22;38046;49.448;32.074;2022-12-07T14:28:41;0.90;80.80
52036;DHT22;38046;49.448;32.074;2022-12-07T14:31:20;0.80;80.80
52036;DHT22;38046;49.448;32.074;2022-12-07T14:33:46;0.80;81.10
52036;DHT22;38046;49.448;32.074;2022-12-07T14:36:13;0.80;81.20
52036;DHT22;38046;49.448;32.074;2022-12-07T14:38:39;0.90;81.20
52036;DHT22;38046;49.448;32.074;2022-12-07T14:41:12;0.90;81.30
52036;DHT22;38046;49.448;32.074;2022-12-07T14:43:57;0.90;81.40
52036;DHT22;38046;49.448;32.074;2022-12-07T14:46:23;0.90;81.40
52036;DHT22;38046;49.448;32.074;2022-12-07T14:48:50;0.90;81.60
52036;DHT22;38046;49.448;32.074;2022-12-07T14:51:16;0.90;81.50
52036;DHT22;38046;49.448;32.074;2022-12-07T14:53:45;1.00;81.60
52036;DHT22;38046;49.448;32.074;2022-12-07T14:56:12;1.00;81.60
52036;DHT22;38046;49.448;32.074;2022-12-07T14:58:37;1.00;81.60
52036;DHT22;38046;49.448;32.074;2022-12-07T15:01:05;1.10;81.60
52036;DHT22;38046;49.448;32.074;2022-12-07T15:03:31;1.10;81.30
52036;DHT22;38046;49.448;32.074;2022-12-07T15:05:56;1.20;81.60
52036;DHT22;38046;49.448;32.074;2022-12-07T15:08:22;1.20;81.60
52036;DHT22;38046;49.448;32.074;2022-12-07T15:10:48;1.30;81.60
52036;DHT22;38046;49.448;32.074;2022-12-07T15:13:13;1.30;81.70
52036;DHT22;38046;49.448;32.074;2022-12-07T15:15:58;1.30;81.60
52036;DHT22;38046;49.448;32.074;2022-12-07T15:18:24;1.40;81.60
52036;DHT22;38046;49.448;32.074;2022-12-07T15:20:50;1.50;81.60
52036;DHT22;38046;49.448;32.074;2022-12-07T15:23:16;1.50;81.60
52036;DHT22;38046;49.448;32.074;2022-12-07T15:25:44;1.60;81.50
52036;DHT22;38046;49.448;32.074;2022-12-07T15:28:10;1.70;81.40
52036;DHT22;38046;49.448;32.074;2022-12-07T15:30:39;1.70;81.00
52036;DHT22;38046;49.448;32.074;2022-12-07T15:33:05;1.70;80.80
52036;DHT22;38046;49.448;32.074;2022-12-07T15:35:31;1.70;80.90
52036;DHT22;38046;49.448;32.074;2022-12-07T15:37:56;1.80;81.20
52036;DHT22;38046;49.448;32.074;2022-12-07T15:40:22;1.80;81.10
52036;DHT22;38046;49.448;32.074;2022-12-07T15:42:47;1.90;81.90
52036;DHT22;38046;49.448;32.074;2022-12-07T15:45:13;1.90;81.10
52036;DHT22;38046;49.448;32.074;2022-12-07T15:47:41;2.00;81.00
52036;DHT22;38046;49.448;32.074;2022-12-07T15:50:09;2.00;80.80
52036;DHT22;38046;49.448;32.074;2022-12-07T15:52:35;2.00;80.80
52036;DHT22;38046;49.448;32.074;2022-12-07T15:55:02;2.10;80.80
52036;DHT22;38046;49.448;32.074;2022-12-07T15:57:34;2.10;80.70
52036;DHT22;38046;49.448;32.074;2022-12-07T16:00:01;2.10;80.80
52036;DHT22;38046;49.448;32.074;2022-12-07T16:02:26;2.20;80.70
52036;DHT22;38046;49.448;32.074;2022-12-07T16:04:52;2.20;80.40
52036;DHT22;38046;49.448;32.074;2022-12-07T16:07:18;2.20;80.40
52036;DHT22;38046;49.448;32.074;2022-12-07T16:09:45;2.20;80.40
52036;DHT22;38046;49.448;32.074;2022-12-07T16:23:39;2.10;79.70
52036;DHT22;38046;49.448;32.074;2022-12-07T16:26:07;2.80;79.80
52036;DHT22;38046;49.448;32.074;2022-12-07T16:28:34;2.70;79.60
52036;DHT22;38046;49.448;32.074;2022-12-07T16:31:02;2.60;79.70
52036;DHT22;38046;49.448;32.074;2022-12-07T16:33:28;2.50;79.90
52036;DHT22;38046;49.448;32.074;2022-12-07T16:35:54;2.40;80.10
52036;DHT22;38046;49.448;32.074;2022-12-07T16:38:20;2.30;80.20
52036;DHT22;38046;49.448;32.074;2022-12-07T16:40:48;2.20;80.30
52036;DHT22;38046;49.448;32.074;2022-12-07T16:43:14;2.10;80.50
52036;DHT22;38046;49.448;32.074;2022-12-07T16:45:40;2.00;80.80
52036;DHT22;38046;49.448;32.074;2022-12-07T16:48:09;1.90;81.10
52036;DHT22;38046;49.448;32.074;2022-12-07T16:50:35;1.80;81.30
52036;DHT22;38046;49.448;32.074;2022-12-07T16:53:04;1.80;81.50
52036;DHT22;38046;49.448;32.074;2022-12-07T16:55:30;1.70;81.70
52036;DHT22;38046;49.448;32.074;2022-12-07T16:57:56;1.70;82.10
52036;DHT22;38046;49.448;32.074;2022-12-07T17:00:22;1.60;82.10
52036;DHT22;38046;49.448;32.074;2022-12-07T17:02:48;1.60;82.10
52036;DHT22;38046;49.448;32.074;2022-12-07T17:05:14;1.60;82.20
52036;DHT22;38046;49.448;32.074;2022-12-07T17:07:40;1.60;82.40
52036;DHT22;38046;49.448;32.074;2022-12-07T17:10:06;1.60;82.40
52036;DHT22;38046;49.448;32.074;2022-12-07T17:12:32;1.60;82.40
52036;DHT22;38046;49.448;32.074;2022-12-07T17:14:58;1.60;82.90
52036;DHT22;38046;49.448;32.074;2022-12-07T17:17:52;1.60;82.30
52036;DHT22;38046;49.448;32.074;2022-12-07T17:20:18;1.50;82.30
52036;DHT22;38046;49.448;32.074;2022-12-07T17:22:45;1.50;82.60
52036;DHT22;38046;49.448;32.074;2022-12-07T17:25:12;1.50;82.70
52036;DHT22;38046;49.448;32.074;2022-12-07T17:27:38;1.60;82.90
52036;DHT22;38046;49.448;32.074;2022-12-07T17:30:05;1.60;83.10
52036;DHT22;38046;49.448;32.074;2022-12-07T17:32:31;1.70;83.10
52036;DHT22;38046;49.448;32.074;2022-12-07T17:34:58;1.70;83.00
52036;DHT22;38046;49.448;32.074;2022-12-07T17:37:25;1.80;82.90
52036;DHT22;38046;49.448;32.074;2022-12-07T17:39:52;1.80;82.90
52036;DHT22;38046;49.448;32.074;2022-12-07T17:42:19;1.80;82.80
52036;DHT22;38046;49.448;32.074;2022-12-07T17:45:09;1.90;82.90
52036;DHT22;38046;49.448;32.074;2022-12-07T17:47:39;1.90;82.50
52036;DHT22;38046;49.448;32.074;2022-12-07T17:50:06;2.00;82.50
52036;DHT22;38046;49.448;32.074;2022-12-07T17:52:32;2.00;82.40
52036;DHT22;38046;49.448;32.074;2022-12-07T17:55:17;2.10;82.20
52036;DHT22;38046;49.448;32.074;2022-12-07T17:57:43;2.10;82.00
52036;DHT22;38046;49.448;32.074;2022-12-07T18:00:10;2.10;81.80
52036;DHT22;38046;49.448;32.074;2022-12-07T18:02:37;2.10;81.90
52036;DHT22;38046;49.448;32.074;2022-12-07T18:05:03;2.10;81.60
52036;DHT22;38046;49.448;32.074;2022-12-07T18:07:29;2.10;81.60
52036;DHT22;38046;49.448;32.074;2022-12-07T18:09:58;2.10;81.70
52036;DHT22;38046;49.448;32.074;2022-12-07T18:12:27;2.10;81.70
52036;DHT22;38046;49.448;32.074;2022-12-07T18:14:53;2.10;81.50
52036;DHT22;38046;49.448;32.074;2022-12-07T18:17:19;2.10;81.50
52036;DHT22;38046;49.448;32.074;2022-12-07T18:19:45;2.10;81.60
52036;DHT22;38046;49.448;32.074;2022-12-07T18:22:11;2.10;81.60
52036;DHT22;38046;49.448;32.074;2022-12-07T18:24:38;2.20;81.60
52036;DHT22;38046;49.448;32.074;2022-12-07T18:27:07;2.20;81.60